Terminal Aerodrome Forecast
Issued by NWS

Home | Current Version | Previous Version | Text Only | Print | Product List | Glossary On
Versions: 1 2 3 4 5 6 7 8 9 10 11 12 13 14 15 16 17 18 19 20 21 22 23 24 25 26 27 28 29 30 31 32 33 34 35 36 37 38 39 40
000
FTUS45 KSLC 260538
TAFPVU
TAF
KPVU 260538Z 2606/2706 14006KT P6SM FEW100 SCT150
     FM260800 14004KT P6SM VCSH BKN060 BKN090
     FM261800 VRB05KT P6SM -SHRA BKN050 BKN080
     FM270100 VRB05KT P6SM VCSH BKN070 BKN090
      AMD LTD TO CLD VIS AND WIND=

USA.gov is the U.S. government's official web portal to all federal, state and local government web resources and services.